Time;durP1;ratioP1;P1;durP2;ratioP2;P2;SDS_P1;SDS_P2;PMS_P1;PMS_P2;Temp;Humidity;BMP_temperature;BMP_pressure;BME280_temperature;BME280_humidity;BME280_pressure;Samples;Min_cycle;Max_cycle;Signal;HPM_P1;HPM_P2
2023/06/27 00:02:22;;;;;;;12.55;11.25;;;;;;;;;;4991683;28;20054;-79
2023/06/27 00:04:48;;;;;;;14.60;12.15;;;;;;;;;;4992574;28;20509;-79
2023/06/27 00:07:14;;;;;;;17.35;11.60;;;;;;;;;;4992925;28;20027;-79
2023/06/27 00:09:40;;;;;;;15.57;12.00;;;;;;;;;;4991398;28;20537;-79
2023/06/27 00:12:07;;;;;;;16.30;11.50;;;;;;;;;;4992569;28;20046;-79
2023/06/27 00:14:33;;;;;;;11.68;10.10;;;;;;;;;;4992436;28;20038;-79
2023/06/27 00:17:00;;;;;;;11.75;10.60;;;;;;;;;;4992610;28;20121;-78
2023/06/27 00:19:26;;;;;;;11.15;10.02;;;;;;;;;;4991174;28;20041;-78
2023/06/27 00:21:52;;;;;;;11.70;10.52;;;;;;;;;;4974466;28;20050;-79
2023/06/27 00:24:18;;;;;;;12.45;10.73;;;;;;;;;;4992272;28;20116;-78
2023/06/27 00:26:44;;;;;;;11.23;10.13;;;;;;;;;;4990882;28;20042;-79
2023/06/27 00:29:10;;;;;;;13.00;10.27;;;;;;;;;;4974737;28;20030;-79
2023/06/27 00:31:36;;;;;;;11.02;9.70;;;;;;;;;;4992309;28;20030;-78
2023/06/27 00:34:02;;;;;;;10.93;9.82;;;;;;;;;;4992380;28;20537;-77
2023/06/27 00:36:28;;;;;;;10.07;9.07;;;;;;;;;;4990832;28;20070;-79
2023/06/27 00:38:55;;;;;;;10.15;9.25;;;;;;;;;;4990811;28;20042;-79
2023/06/27 00:41:21;;;;;;;11.57;9.88;;;;;;;;;;4959123;28;20125;-78
2023/06/27 00:43:47;;;;;;;10.98;9.35;;;;;;;;;;5005196;28;20053;-78
2023/06/27 00:46:13;;;;;;;10.98;9.88;;;;;;;;;;4995014;28;20437;-78
2023/06/27 00:48:40;;;;;;;10.15;9.25;;;;;;;;;;4990510;28;20127;-79
2023/06/27 00:51:07;;;;;;;13.13;10.98;;;;;;;;;;4974936;28;20085;-79
2023/06/27 00:53:33;;;;;;;17.25;11.52;;;;;;;;;;4974722;28;20072;-78
2023/06/27 00:56:00;;;;;;;13.18;11.68;;;;;;;;;;4990657;28;20070;-79
2023/06/27 00:58:26;;;;;;;14.00;12.57;;;;;;;;;;4991611;28;20049;-78
2023/06/27 01:00:52;;;;;;;15.02;11.80;;;;;;;;;;4991713;28;20026;-79
2023/06/27 01:03:18;;;;;;;14.32;12.68;;;;;;;;;;4991421;28;20046;-79
2023/06/27 01:05:45;;;;;;;13.85;12.55;;;;;;;;;;4991422;28;20033;-79
2023/06/27 01:08:11;;;;;;;13.43;11.70;;;;;;;;;;4974037;28;20185;-78
2023/06/27 01:10:40;;;;;;;15.93;10.85;;;;;;;;;;4991395;28;20121;-79
2023/06/27 01:13:09;;;;;;;12.82;11.25;;;;;;;;;;4989910;28;20039;-78
2023/06/27 01:15:36;;;;;;;11.45;10.35;;;;;;;;;;4974234;28;20030;-78
2023/06/27 01:18:03;;;;;;;12.40;11.27;;;;;;;;;;4991553;28;20421;-79
2023/06/27 01:20:32;;;;;;;11.60;10.40;;;;;;;;;;4957989;28;20030;-79
2023/06/27 01:23:05;;;;;;;11.75;10.48;;;;;;;;;;4989831;28;20042;-79
2023/06/27 01:25:31;;;;;;;11.30;10.40;;;;;;;;;;4990107;28;20033;-78
2023/06/27 01:27:58;;;;;;;12.75;10.48;;;;;;;;;;4973788;28;20086;-78
2023/06/27 01:30:24;;;;;;;10.77;9.77;;;;;;;;;;4991280;28;20136;-80
2023/06/27 01:32:55;;;;;;;13.95;9.00;;;;;;;;;;4991195;28;20049;-79
2023/06/27 01:35:31;;;;;;;11.38;9.27;;;;;;;;;;4975050;28;20034;-79
2023/06/27 01:37:58;;;;;;;10.20;9.20;;;;;;;;;;4997520;28;20050;-78
2023/06/27 01:40:24;;;;;;;10.85;9.43;;;;;;;;;;5003523;28;20045;-80
2023/06/27 01:42:50;;;;;;;10.55;8.55;;;;;;;;;;5003017;28;20129;-78
2023/06/27 01:45:17;;;;;;;9.45;8.18;;;;;;;;;;4990309;28;20061;-77
2023/06/27 01:47:43;;;;;;;8.88;7.97;;;;;;;;;;4991181;28;20034;-78
2023/06/27 01:50:10;;;;;;;10.43;8.60;;;;;;;;;;4957788;28;20050;-79
2023/06/27 01:52:39;;;;;;;9.93;9.02;;;;;;;;;;4989594;28;20449;-79
2023/06/27 01:55:06;;;;;;;10.82;8.52;;;;;;;;;;4989793;28;20057;-78
2023/06/27 01:57:33;;;;;;;9.77;8.77;;;;;;;;;;4974178;28;20428;-79
2023/06/27 01:59:59;;;;;;;10.25;8.75;;;;;;;;;;4989518;28;20042;-79
2023/06/27 02:02:25;;;;;;;11.52;10.43;;;;;;;;;;4991053;28;20046;-79
2023/06/27 02:04:51;;;;;;;11.23;9.05;;;;;;;;;;4991178;28;20413;-79
2023/06/27 02:07:18;;;;;;;10.48;9.32;;;;;;;;;;4973880;28;20150;-78
2023/06/27 02:09:44;;;;;;;9.98;8.98;;;;;;;;;;4990720;28;20041;-78
2023/06/27 02:12:11;;;;;;;10.00;8.98;;;;;;;;;;4990755;28;20039;-77
2023/06/27 02:14:41;;;;;;;12.10;9.75;;;;;;;;;;4989831;28;20297;-80
2023/06/27 02:17:07;;;;;;;13.48;9.50;;;;;;;;;;4989770;28;20038;-78
2023/06/27 02:19:33;;;;;;;12.10;10.88;;;;;;;;;;4990877;28;20104;-80
2023/06/27 02:21:59;;;;;;;10.80;9.70;;;;;;;;;;4990767;28;20674;-79
2023/06/27 02:24:25;;;;;;;10.18;9.18;;;;;;;;;;4990858;28;20042;-79
2023/06/27 02:26:51;;;;;;;11.82;10.57;;;;;;;;;;4989314;28;20035;-79
2023/06/27 02:29:17;;;;;;;10.02;8.98;;;;;;;;;;4989684;28;20129;-79
2023/06/27 02:31:43;;;;;;;9.95;9.05;;;;;;;;;;4992113;28;20386;-78
2023/06/27 02:34:09;;;;;;;9.52;8.75;;;;;;;;;;5009882;28;20019;-80
2023/06/27 02:36:35;;;;;;;10.45;9.35;;;;;;;;;;4999328;28;20126;-78
2023/06/27 02:39:01;;;;;;;9.65;8.68;;;;;;;;;;4994548;28;20177;-79
2023/06/27 02:41:28;;;;;;;9.45;8.50;;;;;;;;;;4994281;28;20030;-78
2023/06/27 02:43:54;;;;;;;8.93;8.13;;;;;;;;;;4993934;28;20536;-79
2023/06/27 02:46:20;;;;;;;8.82;8.05;;;;;;;;;;4994483;28;20034;-78
2023/06/27 02:48:46;;;;;;;8.55;7.85;;;;;;;;;;4993841;28;20062;-77
2023/06/27 02:51:12;;;;;;;11.05;7.93;;;;;;;;;;4992962;28;20108;-79
2023/06/27 02:53:38;;;;;;;9.43;8.45;;;;;;;;;;4993141;28;20045;-79
2023/06/27 02:56:05;;;;;;;12.55;9.00;;;;;;;;;;4992756;28;20038;-78
2023/06/27 02:58:34;;;;;;;10.05;8.82;;;;;;;;;;4992719;28;20120;-78
2023/06/27 03:01:03;;;;;;;10.40;8.65;;;;;;;;;;4992425;28;20484;-79
2023/06/27 03:03:32;;;;;;;10.80;9.85;;;;;;;;;;4992451;28;20050;-79
2023/06/27 03:06:02;;;;;;;9.65;8.75;;;;;;;;;;4993909;28;20061;-78
2023/06/27 03:08:29;;;;;;;9.48;8.68;;;;;;;;;;4976131;28;20050;-79
2023/06/27 03:10:56;;;;;;;10.57;8.73;;;;;;;;;;4976140;28;20040;-78
2023/06/27 03:13:22;;;;;;;9.20;8.27;;;;;;;;;;4993431;28;20495;-76
2023/06/27 03:15:49;;;;;;;11.57;9.05;;;;;;;;;;4992094;28;20037;-79
2023/06/27 03:18:15;;;;;;;13.23;8.60;;;;;;;;;;4976117;28;20513;-77
2023/06/27 03:20:41;;;;;;;11.35;8.10;;;;;;;;;;4993728;28;20038;-78
2023/06/27 03:23:07;;;;;;;8.75;7.95;;;;;;;;;;4991885;28;20045;-79
2023/06/27 03:25:33;;;;;;;8.38;7.72;;;;;;;;;;4993482;28;20038;-79
2023/06/27 03:28:02;;;;;;;8.30;7.55;;;;;;;;;;4991970;28;20464;-78
2023/06/27 03:30:29;;;;;;;11.23;7.65;;;;;;;;;;4991921;28;20057;-80
2023/06/27 03:32:55;;;;;;;8.43;7.65;;;;;;;;;;4991993;28;20046;-79
2023/06/27 03:35:22;;;;;;;8.20;7.50;;;;;;;;;;4992038;28;20141;-79
2023/06/27 03:37:50;;;;;;;12.00;6.80;;;;;;;;;;4991939;28;20034;-78
2023/06/27 03:40:17;;;;;;;7.63;7.03;;;;;;;;;;4993194;28;20129;-79
2023/06/27 03:42:43;;;;;;;9.23;7.53;;;;;;;;;;4975860;28;20054;-79
2023/06/27 03:45:09;;;;;;;8.00;7.20;;;;;;;;;;4991696;28;20081;-78
2023/06/27 03:47:37;;;;;;;7.75;7.15;;;;;;;;;;4991914;28;20039;-80
2023/06/27 03:50:03;;;;;;;7.95;6.38;;;;;;;;;;4991726;28;20063;-79
2023/06/27 03:52:29;;;;;;;7.43;6.65;;;;;;;;;;4991705;28;20034;-79
2023/06/27 03:54:55;;;;;;;6.93;6.43;;;;;;;;;;4992671;28;20061;-79
2023/06/27 03:57:21;;;;;;;9.07;6.65;;;;;;;;;;4991601;28;20046;-79
2023/06/27 03:59:47;;;;;;;7.07;6.47;;;;;;;;;;4991188;28;20026;-80
2023/06/27 04:02:13;;;;;;;7.65;6.25;;;;;;;;;;4992930;28;20054;-80
2023/06/27 04:04:39;;;;;;;6.00;5.60;;;;;;;;;;4991638;28;20042;-79
2023/06/27 04:07:06;;;;;;;6.43;5.93;;;;;;;;;;4992461;28;20084;-80
2023/06/27 04:09:31;;;;;;;5.80;5.30;;;;;;;;;;4975026;28;20456;-78
2023/06/27 04:11:59;;;;;;;7.90;5.50;;;;;;;;;;4993846;28;20034;-82
2023/06/27 04:14:25;;;;;;;6.65;5.97;;;;;;;;;;4995672;28;20042;-81
2023/06/27 04:16:51;;;;;;;6.22;5.72;;;;;;;;;;4993809;28;20046;-82
2023/06/27 04:19:17;;;;;;;6.63;5.45;;;;;;;;;;4975724;28;20038;-82
2023/06/27 04:21:44;;;;;;;10.32;5.40;;;;;;;;;;4991880;28;20034;-82
2023/06/27 04:24:10;;;;;;;6.30;5.40;;;;;;;;;;4994111;28;20037;-81
2023/06/27 04:26:36;;;;;;;4.60;4.30;;;;;;;;;;4982608;28;20026;-82
2023/06/27 04:29:03;;;;;;;4.50;4.10;;;;;;;;;;4994485;28;20061;-79
2023/06/27 04:31:29;;;;;;;5.78;5.10;;;;;;;;;;4995228;28;20037;-83
2023/06/27 04:33:59;;;;;;;5.63;5.15;;;;;;;;;;4994821;28;20034;-82
2023/06/27 04:36:25;;;;;;;;;;;;;;;;;;4995547;28;20416;-82
2023/06/27 04:38:51;;;;;;;9.60;4.82;;;;;;;;;;4992925;28;19918;-83
2023/06/27 04:41:17;;;;;;;5.20;4.80;;;;;;;;;;4993133;28;20063;-83
2023/06/27 04:43:43;;;;;;;5.43;5.00;;;;;;;;;;4994965;28;20150;-81
2023/06/27 04:46:09;;;;;;;5.30;4.90;;;;;;;;;;4995379;28;20030;-82
2023/06/27 04:48:35;;;;;;;5.30;4.90;;;;;;;;;;5003383;28;20425;-83
2023/06/27 04:51:01;;;;;;;6.13;5.30;;;;;;;;;;5006787;28;20093;-82
2023/06/27 04:53:27;;;;;;;5.10;4.60;;;;;;;;;;4996203;28;20042;-82
2023/06/27 04:55:53;;;;;;;5.25;4.85;;;;;;;;;;4993786;28;20306;-81
2023/06/27 04:58:20;;;;;;;5.50;5.00;;;;;;;;;;4994541;28;20042;-82
2023/06/27 05:00:48;;;;;;;5.28;4.78;;;;;;;;;;4993589;28;20560;-82
2023/06/27 05:03:14;;;;;;;5.85;4.88;;;;;;;;;;4993596;28;20076;-82
2023/06/27 05:05:40;;;;;;;5.22;4.82;;;;;;;;;;4995859;28;20038;-82
2023/06/27 05:08:07;;;;;;;5.07;4.53;;;;;;;;;;4996201;28;20069;-83
2023/06/27 05:10:33;;;;;;;5.32;4.70;;;;;;;;;;4995834;28;20038;-81
2023/06/27 05:12:59;;;;;;;7.80;5.25;;;;;;;;;;4998294;28;20116;-82
2023/06/27 05:15:25;;;;;;;6.43;4.95;;;;;;;;;;4997243;28;20069;-82
2023/06/27 05:17:52;;;;;;;6.32;4.85;;;;;;;;;;4995901;28;20034;-83
2023/06/27 05:20:18;;;;;;;5.18;4.78;;;;;;;;;;4979423;28;20312;-82
2023/06/27 05:22:44;;;;;;;8.00;4.47;;;;;;;;;;4996726;28;20050;-81
2023/06/27 05:25:11;;;;;;;8.20;4.65;;;;;;;;;;4996786;28;20038;-82
2023/06/27 05:27:37;;;;;;;4.97;4.57;;;;;;;;;;4997621;28;20065;-81
2023/06/27 05:30:03;;;;;;;5.90;4.75;;;;;;;;;;5002834;28;20421;-81
2023/06/27 05:32:31;;;;;;;5.03;4.53;;;;;;;;;;5000328;28;20497;-82
2023/06/27 05:34:57;;;;;;;5.22;4.20;;;;;;;;;;4997191;28;20057;-82
2023/06/27 05:37:22;;;;;;;5.03;4.63;;;;;;;;;;4994576;28;20505;-80
2023/06/27 05:39:48;;;;;;;4.50;4.20;;;;;;;;;;4994740;28;20034;-82
2023/06/27 05:42:15;;;;;;;5.63;4.38;;;;;;;;;;4992263;28;20065;-83
2023/06/27 05:44:41;;;;;;;4.47;3.47;;;;;;;;;;4991348;28;20061;-82
2023/06/27 05:47:07;;;;;;;3.85;3.65;;;;;;;;;;4992194;28;20038;-81
2023/06/27 05:49:33;;;;;;;5.05;4.25;;;;;;;;;;4991063;28;20054;-82
2023/06/27 05:51:59;;;;;;;4.63;4.05;;;;;;;;;;4994943;28;20377;-82
2023/06/27 05:54:24;;;;;;;4.05;3.63;;;;;;;;;;4996596;28;20038;-81
2023/06/27 05:56:51;;;;;;;4.47;4.05;;;;;;;;;;4993026;28;20069;-81
2023/06/27 05:59:17;;;;;;;4.40;4.00;;;;;;;;;;4995175;28;20038;-83
2023/06/27 06:01:43;;;;;;;4.18;3.78;;;;;;;;;;4993898;28;20030;-82
2023/06/27 06:04:08;;;;;;;6.25;4.35;;;;;;;;;;4979492;28;20456;-84
2023/06/27 06:06:37;;;;;;;6.75;4.03;;;;;;;;;;4994110;28;20123;-83
2023/06/27 06:09:05;;;;;;;4.63;4.00;;;;;;;;;;4999839;28;20053;-82
2023/06/27 06:11:34;;;;;;;4.40;4.05;;;;;;;;;;5001106;28;20035;-83
2023/06/27 06:14:01;;;;;;;4.13;3.83;;;;;;;;;;5014009;28;20368;-83
2023/06/27 06:16:27;;;;;;;4.03;3.65;;;;;;;;;;4996958;28;20030;-83
2023/06/27 06:18:54;;;;;;;4.53;4.22;;;;;;;;;;4996462;28;20125;-83
2023/06/27 06:21:20;;;;;;;4.72;4.32;;;;;;;;;;4998877;28;20096;-83
2023/06/27 06:23:46;;;;;;;5.93;4.20;;;;;;;;;;5001533;28;20042;-84
2023/06/27 06:26:12;;;;;;;9.07;3.92;;;;;;;;;;5003779;28;20562;-83
2023/06/27 06:28:38;;;;;;;4.20;3.80;;;;;;;;;;5000039;28;20125;-83
2023/06/27 06:31:05;;;;;;;3.92;3.47;;;;;;;;;;4998671;28;20528;-81
2023/06/27 06:33:31;;;;;;;10.13;3.88;;;;;;;;;;4997195;28;20030;-82
2023/06/27 06:35:57;;;;;;;7.45;4.22;;;;;;;;;;4997387;28;20039;-83
2023/06/27 06:38:24;;;;;;;5.45;4.15;;;;;;;;;;4998259;28;20046;-81
2023/06/27 06:40:50;;;;;;;4.50;4.10;;;;;;;;;;4997187;28;20034;-83
2023/06/27 06:43:16;;;;;;;6.80;4.75;;;;;;;;;;4997333;28;20042;-82
2023/06/27 06:45:43;;;;;;;4.13;3.83;;;;;;;;;;4997868;28;20100;-80
2023/06/27 06:48:09;;;;;;;4.72;4.43;;;;;;;;;;4996355;28;20468;-82
2023/06/27 06:50:35;;;;;;;5.50;4.82;;;;;;;;;;4996193;28;20038;-82
2023/06/27 06:53:01;;;;;;;4.93;4.53;;;;;;;;;;4995902;28;20039;-82
2023/06/27 06:55:27;;;;;;;5.10;3.95;;;;;;;;;;4996739;28;20034;-82
2023/06/27 06:57:53;;;;;;;4.10;3.90;;;;;;;;;;4995839;28;20041;-81
2023/06/27 07:00:19;;;;;;;7.15;4.10;;;;;;;;;;4994327;28;20456;-81
2023/06/27 07:02:45;;;;;;;6.10;4.05;;;;;;;;;;4995088;28;20081;-82
2023/06/27 07:05:12;;;;;;;4.97;4.47;;;;;;;;;;4993304;28;20132;-82
2023/06/27 07:07:38;;;;;;;5.10;4.03;;;;;;;;;;4993240;28;20137;-82
2023/06/27 07:10:04;;;;;;;5.93;4.40;;;;;;;;;;4994431;28;20556;-81
2023/06/27 07:12:31;;;;;;;4.20;3.90;;;;;;;;;;4995168;28;20038;-81
2023/06/27 07:14:57;;;;;;;4.68;4.28;;;;;;;;;;4994998;28;20125;-83
2023/06/27 07:17:23;;;;;;;5.00;4.60;;;;;;;;;;4997647;28;20533;-82
2023/06/27 07:19:49;;;;;;;3.28;3.03;;;;;;;;;;4994880;28;20125;-84
2023/06/27 07:22:15;;;;;;;4.55;4.15;;;;;;;;;;4995311;28;20050;-83
2023/06/27 07:24:41;;;;;;;7.47;4.13;;;;;;;;;;4994345;28;20084;-82
2023/06/27 07:27:07;;;;;;;4.20;3.90;;;;;;;;;;4994283;28;20062;-82
2023/06/27 07:29:33;;;;;;;3.38;3.08;;;;;;;;;;4994369;28;20038;-82
2023/06/27 07:31:59;;;;;;;3.92;3.63;;;;;;;;;;4994695;28;20038;-82
2023/06/27 07:34:26;;;;;;;3.10;2.90;;;;;;;;;;4995294;28;20045;-83
2023/06/27 07:36:52;;;;;;;3.65;3.35;;;;;;;;;;5000299;28;20030;-83
2023/06/27 07:39:18;;;;;;;3.47;3.28;;;;;;;;;;4997913;28;20041;-82
2023/06/27 07:41:43;;;;;;;7.28;2.95;;;;;;;;;;4997064;28;20048;-81
2023/06/27 07:44:10;;;;;;;3.53;3.33;;;;;;;;;;5004115;28;20047;-83
2023/06/27 07:46:36;;;;;;;3.45;3.25;;;;;;;;;;5008676;28;20038;-84
2023/06/27 07:49:02;;;;;;;3.00;2.80;;;;;;;;;;5006162;28;20058;-82
2023/06/27 07:51:28;;;;;;;3.30;3.10;;;;;;;;;;4996285;28;20042;-82
2023/06/27 07:53:56;;;;;;;3.53;3.22;;;;;;;;;;4997194;28;20225;-83
2023/06/27 07:56:22;;;;;;;3.55;3.33;;;;;;;;;;4995715;28;20042;-82
2023/06/27 07:58:48;;;;;;;3.00;2.80;;;;;;;;;;4996990;28;20039;-83
2023/06/27 08:01:14;;;;;;;3.30;3.00;;;;;;;;;;5012229;28;20130;-83
2023/06/27 08:03:41;;;;;;;5.15;3.35;;;;;;;;;;5006602;28;20098;-83
2023/06/27 08:06:06;;;;;;;3.42;3.10;;;;;;;;;;5005483;28;20035;-83
2023/06/27 08:08:32;;;;;;;3.70;3.50;;;;;;;;;;5002932;28;20102;-84
2023/06/27 08:10:59;;;;;;;3.60;3.40;;;;;;;;;;5000367;28;20038;-83
2023/06/27 08:13:25;;;;;;;3.35;3.15;;;;;;;;;;4997294;28;20042;-83
2023/06/27 08:15:51;;;;;;;3.22;3.00;;;;;;;;;;4999755;28;20034;-84
2023/06/27 08:18:17;;;;;;;3.25;3.03;;;;;;;;;;5002890;28;20073;-84
2023/06/27 08:20:43;;;;;;;3.80;3.60;;;;;;;;;;5006841;28;20038;-81
2023/06/27 08:23:09;;;;;;;3.60;3.40;;;;;;;;;;5003332;28;20121;-84
2023/06/27 08:25:35;;;;;;;3.67;3.40;;;;;;;;;;5004303;28;20049;-83
2023/06/27 08:28:01;;;;;;;3.42;3.22;;;;;;;;;;4996170;28;20034;-83
2023/06/27 08:30:27;;;;;;;3.67;3.38;;;;;;;;;;4999459;28;20034;-84
2023/06/27 08:32:57;;;;;;;3.63;3.42;;;;;;;;;;5006935;28;20034;-84
2023/06/27 08:35:23;;;;;;;3.60;3.40;;;;;;;;;;5006927;28;20069;-84
2023/06/27 08:37:49;;;;;;;3.58;3.38;;;;;;;;;;5001226;28;20069;-83
2023/06/27 08:40:19;;;;;;;3.50;3.30;;;;;;;;;;5005345;28;20049;-83
2023/06/27 08:42:45;;;;;;;5.20;3.40;;;;;;;;;;4999326;28;20068;-82
2023/06/27 08:45:11;;;;;;;3.45;3.25;;;;;;;;;;5003667;28;20049;-83
2023/06/27 08:47:37;;;;;;;3.42;3.22;;;;;;;;;;5000844;28;20034;-84
2023/06/27 08:50:03;;;;;;;3.50;3.20;;;;;;;;;;5003574;28;20086;-83
2023/06/27 08:52:32;;;;;;;3.30;3.10;;;;;;;;;;5004232;28;20084;-84
2023/06/27 08:54:58;;;;;;;3.47;3.28;;;;;;;;;;4999762;28;20030;-83
2023/06/27 08:57:25;;;;;;;3.17;2.95;;;;;;;;;;5003930;28;20050;-81
2023/06/27 08:59:51;;;;;;;3.78;3.47;;;;;;;;;;5009092;28;20045;-84
2023/06/27 09:02:17;;;;;;;3.47;3.17;;;;;;;;;;5000951;28;20038;-82
2023/06/27 09:04:45;;;;;;;5.25;3.22;;;;;;;;;;5002422;28;20065;-83
2023/06/27 09:07:11;;;;;;;3.13;2.85;;;;;;;;;;5001132;28;20413;-83
2023/06/27 09:09:37;;;;;;;3.58;3.28;;;;;;;;;;5000853;28;20038;-83
2023/06/27 09:12:04;;;;;;;2.75;2.65;;;;;;;;;;5000390;28;20038;-81
2023/06/27 09:14:30;;;;;;;4.18;2.25;;;;;;;;;;4995494;28;20049;-83
2023/06/27 09:16:56;;;;;;;3.20;2.88;;;;;;;;;;4996597;28;20125;-83
2023/06/27 09:19:22;;;;;;;3.30;3.00;;;;;;;;;;4995542;28;20401;-83
2023/06/27 09:21:50;;;;;;;3.22;2.97;;;;;;;;;;5000463;28;20058;-84
2023/06/27 09:24:20;;;;;;;3.25;3.05;;;;;;;;;;4999870;28;20050;-84
2023/06/27 09:26:46;;;;;;;3.55;3.35;;;;;;;;;;5000561;28;20513;-83
2023/06/27 09:29:12;;;;;;;3.63;3.33;;;;;;;;;;5000672;28;20026;-85
2023/06/27 09:31:38;;;;;;;3.70;3.50;;;;;;;;;;5005393;28;20093;-83
2023/06/27 09:34:09;;;;;;;3.90;3.50;;;;;;;;;;4999261;28;20520;-83
2023/06/27 09:36:36;;;;;;;3.40;3.20;;;;;;;;;;4999426;28;20042;-83
2023/06/27 09:39:03;;;;;;;3.65;3.33;;;;;;;;;;4999311;28;20583;-84
2023/06/27 09:41:48;;;;;;;3.33;3.03;;;;;;;;;;5000161;28;20031;-84
2023/06/27 09:44:17;;;;;;;3.70;3.30;;;;;;;;;;4993817;28;20107;-83
2023/06/27 09:46:44;;;;;;;3.55;3.30;;;;;;;;;;4997769;28;20034;-81
2023/06/27 09:49:09;;;;;;;3.00;2.90;;;;;;;;;;4993835;28;20147;-82
2023/06/27 09:51:36;;;;;;;3.67;3.47;;;;;;;;;;5002674;28;20139;-84
2023/06/27 09:54:02;;;;;;;4.50;3.90;;;;;;;;;;4997306;28;20034;-83
2023/06/27 09:56:31;;;;;;;4.53;3.40;;;;;;;;;;5001384;28;20101;-83
2023/06/27 09:59:10;;;;;;;7.32;3.03;;;;;;;;;;4997848;28;20098;-84
2023/06/27 10:01:37;;;;;;;4.03;2.95;;;;;;;;;;4999742;28;20386;-84
2023/06/27 10:04:03;;;;;;;4.15;3.33;;;;;;;;;;5004753;28;20133;-85
2023/06/27 10:06:29;;;;;;;2.90;2.65;;;;;;;;;;4997566;28;20038;-84
2023/06/27 10:08:55;;;;;;;3.60;3.30;;;;;;;;;;4997836;28;20042;-84
2023/06/27 10:11:21;;;;;;;6.28;3.20;;;;;;;;;;5003037;28;20128;-83
2023/06/27 10:13:48;;;;;;;4.90;3.38;;;;;;;;;;4994781;28;20034;-83
2023/06/27 10:16:14;;;;;;;3.65;3.40;;;;;;;;;;5000043;28;20038;-85
2023/06/27 10:18:41;;;;;;;3.60;3.22;;;;;;;;;;4993238;28;20070;-84
2023/06/27 10:21:07;;;;;;;4.18;3.55;;;;;;;;;;4997337;28;20089;-83
2023/06/27 10:23:33;;;;;;;3.85;3.40;;;;;;;;;;5002635;28;20046;-85
2023/06/27 10:25:59;;;;;;;3.35;3.15;;;;;;;;;;5005223;28;20034;-85
2023/06/27 10:28:25;;;;;;;3.28;3.08;;;;;;;;;;4999955;28;20137;-84
2023/06/27 10:30:51;;;;;;;4.00;2.90;;;;;;;;;;4997435;28;20026;-83
2023/06/27 10:33:20;;;;;;;5.10;3.70;;;;;;;;;;5000418;28;20038;-83
2023/06/27 10:35:50;;;;;;;3.63;3.38;;;;;;;;;;4999247;28;20381;-84
2023/06/27 10:38:17;;;;;;;3.65;3.42;;;;;;;;;;5000976;28;20038;-84
2023/06/27 10:41:04;;;;;;;10.48;2.13;;;;;;;;;;5003477;28;20053;-83
2023/06/27 10:43:50;;;;;;;3.40;3.20;;;;;;;;;;5007277;28;20034;-83
2023/06/27 10:46:22;;;;;;;3.40;3.10;;;;;;;;;;5007975;28;20035;-83
2023/06/27 10:48:49;;;;;;;3.47;3.28;;;;;;;;;;4998300;28;20126;-83
2023/06/27 10:51:19;;;;;;;3.67;3.30;;;;;;;;;;4998698;28;20045;-84
2023/06/27 10:54:03;;;;;;;3.33;3.13;;;;;;;;;;4997158;28;20030;-83
2023/06/27 10:56:30;;;;;;;3.67;3.38;;;;;;;;;;5001743;28;20497;-84
2023/06/27 10:58:58;;;;;;;3.60;3.35;;;;;;;;;;5005360;28;20039;-84
2023/06/27 11:01:24;;;;;;;6.03;3.00;;;;;;;;;;5003032;28;20042;-81
2023/06/27 11:03:56;;;;;;;3.40;3.20;;;;;;;;;;5002298;28;20094;-83
2023/06/27 11:06:41;;;;;;;4.43;3.30;;;;;;;;;;5003958;28;20039;-84
2023/06/27 11:09:10;;;;;;;3.42;3.10;;;;;;;;;;5007170;28;20043;-83
2023/06/27 11:11:36;;;;;;;3.50;3.13;;;;;;;;;;5007628;28;20032;-83
2023/06/27 11:14:06;;;;;;;3.28;2.88;;;;;;;;;;5005014;28;20038;-83
2023/06/27 11:16:35;;;;;;;4.20;3.08;;;;;;;;;;5001011;28;20050;-83
2023/06/27 11:19:01;;;;;;;3.72;3.42;;;;;;;;;;5005307;28;20065;-83
2023/06/27 11:21:27;;;;;;;4.93;3.20;;;;;;;;;;4999555;28;20516;-83
2023/06/27 11:23:57;;;;;;;7.00;3.78;;;;;;;;;;5006244;28;20053;-84
2023/06/27 11:26:23;;;;;;;3.30;3.10;;;;;;;;;;5004835;28;20034;-83
2023/06/27 11:28:49;;;;;;;4.90;3.17;;;;;;;;;;4997797;28;20125;-84
2023/06/27 11:31:15;;;;;;;4.25;3.50;;;;;;;;;;5000214;28;20533;-82
2023/06/27 11:33:41;;;;;;;3.63;3.40;;;;;;;;;;5001396;28;20042;-83
2023/06/27 11:36:07;;;;;;;3.65;3.45;;;;;;;;;;5011404;28;20037;-81
2023/06/27 11:38:33;;;;;;;4.57;3.15;;;;;;;;;;5012178;28;20100;-83
2023/06/27 11:40:59;;;;;;;3.90;3.58;;;;;;;;;;5005554;28;20034;-83
2023/06/27 11:43:27;;;;;;;4.28;3.40;;;;;;;;;;5004140;28;20092;-84
2023/06/27 11:45:54;;;;;;;3.70;3.50;;;;;;;;;;4985310;28;20026;-84
2023/06/27 11:48:20;;;;;;;7.20;3.45;;;;;;;;;;5001459;28;20050;-83
2023/06/27 11:50:57;;;;;;;3.40;2.95;;;;;;;;;;5001521;28;20080;-82
2023/06/27 11:53:24;;;;;;;3.80;3.60;;;;;;;;;;4997233;28;20038;-82
2023/06/27 11:55:51;;;;;;;4.80;3.47;;;;;;;;;;4997046;28;20508;-84
2023/06/27 11:58:18;;;;;;;5.28;4.00;;;;;;;;;;5001017;28;20043;-82
2023/06/27 12:00:43;;;;;;;4.97;3.88;;;;;;;;;;4998916;28;20050;-83
2023/06/27 12:03:09;;;;;;;4.75;3.33;;;;;;;;;;4996966;28;20137;-84
2023/06/27 12:05:35;;;;;;;6.00;3.88;;;;;;;;;;5001607;28;20034;-82
2023/06/27 12:08:05;;;;;;;4.32;4.00;;;;;;;;;;5001898;28;20038;-84
2023/06/27 12:10:31;;;;;;;7.88;4.47;;;;;;;;;;4982441;28;20087;-84
2023/06/27 12:12:57;;;;;;;5.03;4.60;;;;;;;;;;5002817;28;20042;-84
2023/06/27 12:15:23;;;;;;;5.78;4.30;;;;;;;;;;5003081;28;20100;-83
2023/06/27 12:17:55;;;;;;;5.55;4.55;;;;;;;;;;5004072;28;20416;-82
2023/06/27 12:20:22;;;;;;;5.18;4.68;;;;;;;;;;5003961;28;20042;-83
2023/06/27 12:22:48;;;;;;;5.93;4.65;;;;;;;;;;5003336;28;20076;-83
2023/06/27 12:25:14;;;;;;;6.22;4.60;;;;;;;;;;5002209;28;20125;-84
2023/06/27 12:27:39;;;;;;;7.30;4.47;;;;;;;;;;5000343;28;20038;-84
2023/06/27 12:30:09;;;;;;;5.20;4.80;;;;;;;;;;5001876;28;20030;-82
2023/06/27 12:32:35;;;;;;;9.13;5.23;;;;;;;;;;5000194;28;20038;-81
2023/06/27 12:35:02;;;;;;;5.50;5.00;;;;;;;;;;4999678;28;20048;-81
2023/06/27 12:37:33;;;;;;;5.90;5.32;;;;;;;;;;4998791;28;20085;-83
2023/06/27 12:39:59;;;;;;;5.65;5.10;;;;;;;;;;5001131;28;20116;-83
2023/06/27 12:42:25;;;;;;;5.68;5.28;;;;;;;;;;4999575;28;20038;-83
2023/06/27 12:44:55;;;;;;;5.60;5.18;;;;;;;;;;5000915;28;20050;-83
2023/06/27 12:47:20;;;;;;;6.75;4.85;;;;;;;;;;4999490;28;20026;-82
2023/06/27 12:49:47;;;;;;;13.13;5.38;;;;;;;;;;4999095;28;20140;-83
2023/06/27 12:52:13;;;;;;;12.63;5.13;;;;;;;;;;5001580;28;20097;-83
2023/06/27 12:54:39;;;;;;;6.97;5.15;;;;;;;;;;5000882;28;20034;-84
2023/06/27 12:57:05;;;;;;;16.40;5.07;;;;;;;;;;5001053;28;20524;-82
2023/06/27 12:59:31;;;;;;;5.15;4.85;;;;;;;;;;4982799;28;20129;-82
2023/06/27 13:02:00;;;;;;;5.57;5.00;;;;;;;;;;4998644;28;20053;-82
2023/06/27 13:04:29;;;;;;;5.65;5.20;;;;;;;;;;4997378;28;20096;-83
2023/06/27 13:06:57;;;;;;;5.13;4.72;;;;;;;;;;4995759;28;20045;-84
2023/06/27 13:09:23;;;;;;;6.30;5.30;;;;;;;;;;4995660;28;20034;-84
2023/06/27 13:11:49;;;;;;;6.38;5.20;;;;;;;;;;4994364;28;20413;-83
2023/06/27 13:14:16;;;;;;;6.13;5.38;;;;;;;;;;4996433;28;20030;-84
2023/06/27 13:16:42;;;;;;;5.22;4.82;;;;;;;;;;4999708;28;20026;-83
2023/06/27 13:19:10;;;;;;;5.60;5.20;;;;;;;;;;4996399;28;20043;-84
2023/06/27 13:21:37;;;;;;;8.73;5.82;;;;;;;;;;4978967;28;20031;-85
2023/06/27 13:24:04;;;;;;;5.53;5.03;;;;;;;;;;5007416;28;20029;-83
2023/06/27 13:26:30;;;;;;;5.70;5.20;;;;;;;;;;5007023;28;20038;-81
2023/06/27 13:28:56;;;;;;;13.15;5.57;;;;;;;;;;5007514;28;20046;-83
2023/06/27 13:31:22;;;;;;;6.25;5.65;;;;;;;;;;5002626;28;20068;-82
2023/06/27 13:33:48;;;;;;;13.55;6.07;;;;;;;;;;5004541;28;20049;-83
2023/06/27 13:36:15;;;;;;;14.85;5.53;;;;;;;;;;5011722;28;20037;-83
2023/06/27 13:38:41;;;;;;;7.63;6.50;;;;;;;;;;5010594;28;20103;-82
2023/06/27 13:41:07;;;;;;;9.93;6.88;;;;;;;;;;5011023;28;20030;-83
2023/06/27 13:43:34;;;;;;;10.90;6.13;;;;;;;;;;5006746;28;20042;-83
2023/06/27 13:46:00;;;;;;;14.93;6.70;;;;;;;;;;4996390;28;20409;-83
2023/06/27 13:48:26;;;;;;;12.48;6.47;;;;;;;;;;4994657;28;20053;-82
2023/06/27 13:50:56;;;;;;;13.82;6.60;;;;;;;;;;4994444;28;20441;-81
2023/06/27 13:53:22;;;;;;;16.77;6.45;;;;;;;;;;4995713;28;20640;-82
2023/06/27 13:55:48;;;;;;;15.55;6.80;;;;;;;;;;4997172;28;20034;-80
2023/06/27 13:58:14;;;;;;;17.40;6.93;;;;;;;;;;4997112;28;20044;-82
2023/06/27 14:00:40;;;;;;;13.82;6.85;;;;;;;;;;4996443;28;20046;-83
2023/06/27 14:03:06;;;;;;;17.35;6.90;;;;;;;;;;4996886;28;20042;-83
2023/06/27 14:05:32;;;;;;;11.68;6.63;;;;;;;;;;4998354;28;20041;-82
2023/06/27 14:07:58;;;;;;;9.30;7.22;;;;;;;;;;4996625;28;20057;-83
2023/06/27 14:10:26;;;;;;;7.47;6.55;;;;;;;;;;4995640;28;20088;-80
2023/06/27 14:12:53;;;;;;;21.73;7.93;;;;;;;;;;4996213;28;20038;-82
2023/06/27 14:15:19;;;;;;;16.65;8.00;;;;;;;;;;4996205;28;20042;-82
2023/06/27 14:17:45;;;;;;;18.67;7.15;;;;;;;;;;4994198;28;20042;-82
2023/06/27 14:20:11;;;;;;;25.45;7.82;;;;;;;;;;4996315;28;20041;-83
2023/06/27 14:22:38;;;;;;;18.75;7.80;;;;;;;;;;4995288;28;20409;-82
2023/06/27 14:25:04;;;;;;;19.83;8.48;;;;;;;;;;4996126;28;20413;-82
2023/06/27 14:27:30;;;;;;;15.18;7.35;;;;;;;;;;4995761;28;20038;-82
2023/06/27 14:29:56;;;;;;;17.90;7.32;;;;;;;;;;5002057;28;20042;-82
2023/06/27 14:32:22;;;;;;;16.10;7.80;;;;;;;;;;5001873;28;20053;-83
2023/06/27 14:34:48;;;;;;;16.55;7.32;;;;;;;;;;4999991;28;20053;-82
2023/06/27 14:37:14;;;;;;;14.73;6.35;;;;;;;;;;4999846;28;20116;-83